Time;durP1;ratioP1;P1;durP2;ratioP2;P2;SDS_P1;SDS_P2;PMS_P1;PMS_P2;Temp;Humidity;BMP_temperature;BMP_pressure;BME280_temperature;BME280_humidity;BME280_pressure;Samples;Min_cycle;Max_cycle;Signal;HPM_P1;HPM_P2
2022/12/28 00:01:16;;;;;;;7.55;3.20;;;;;;;3.01;93.05;99947.63;1700282;83;21085;-76
2022/12/28 00:03:44;;;;;;;6.80;3.47;;;;;;;2.99;93.08;99953.13;1700030;84;22165;-79
2022/12/28 00:06:11;;;;;;;9.50;4.03;;;;;;;3.04;93.19;99951.22;1702030;83;21534;-73
2022/12/28 00:08:37;;;;;;;9.30;3.83;;;;;;;3.04;93.07;99964.50;1697591;83;21578;-71
2022/12/28 00:11:11;;;;;;;9.30;3.62;;;;;;;3.04;92.87;99957.86;1641790;87;20946;-72
2022/12/28 00:13:37;;;;;;;6.95;3.50;;;;;;;3.03;92.74;99947.73;1628363;88;21600;-70
2022/12/28 00:16:14;;;;;;;5.55;3.08;;;;;;;3.01;92.56;99956.42;1649826;85;21252;-69
2022/12/28 00:18:41;;;;;;;9.13;3.70;;;;;;;2.98;92.66;99954.14;1683754;83;21037;-72
2022/12/28 00:21:08;;;;;;;7.35;3.42;;;;;;;2.99;92.54;99953.63;1722722;83;21044;-73
2022/12/28 00:23:36;;;;;;;9.13;4.00;;;;;;;2.98;92.51;99954.14;1718358;83;20968;-71
2022/12/28 00:26:11;;;;;;;7.08;4.10;;;;;;;2.98;92.24;99955.47;1702984;83;21597;-70
2022/12/28 00:28:40;;;;;;;9.30;3.35;;;;;;;2.97;91.94;99953.02;1672472;83;21105;-71
2022/12/28 00:31:07;;;;;;;4.12;3.15;;;;;;;2.93;91.82;99965.85;1667519;86;21024;-73
2022/12/28 00:33:33;;;;;;;5.80;3.50;;;;;;;2.93;91.82;99965.85;1667874;86;21078;-72
2022/12/28 00:36:00;;;;;;;8.28;3.72;;;;;;;2.94;91.57;99968.00;1667810;86;21123;-72
2022/12/28 00:38:30;;;;;;;6.50;3.83;;;;;;;2.94;91.57;99968.00;1708883;83;21049;-73
2022/12/28 00:40:58;;;;;;;4.83;3.15;;;;;;;2.95;91.38;99957.70;1725023;83;20953;-71
2022/12/28 00:43:25;;;;;;;7.15;3.75;;;;;;;2.95;91.00;99967.81;1725021;83;22310;-72
2022/12/28 00:45:51;;;;;;;5.92;3.45;;;;;;;2.92;90.77;99953.61;1713014;83;21513;-72
2022/12/28 00:48:18;;;;;;;12.18;3.55;;;;;;;2.92;90.77;99953.61;1677792;84;21024;-70
2022/12/28 00:50:44;;;;;;;4.25;3.02;;;;;;;2.92;91.04;99966.06;1648798;86;21139;-70
2022/12/28 00:53:11;;;;;;;4.78;3.55;;;;;;;2.92;91.04;99966.06;1667821;86;21160;-73
2022/12/28 00:55:38;;;;;;;10.78;3.58;;;;;;;2.95;91.05;99969.66;1669083;83;21053;-70
2022/12/28 00:58:05;;;;;;;5.87;3.10;;;;;;;2.95;91.05;99973.13;1667984;84;21015;-70
2022/12/28 01:00:32;;;;;;;7.30;3.27;;;;;;;2.96;91.04;99997.87;1667763;85;21032;-71
2022/12/28 01:02:59;;;;;;;7.72;3.27;;;;;;;2.90;91.36;99978.20;1667808;86;21000;-70
2022/12/28 01:05:26;;;;;;;6.05;3.42;;;;;;;2.90;91.36;99978.20;1668705;83;21133;-72
2022/12/28 01:07:52;;;;;;;4.90;3.45;;;;;;;2.92;91.57;99987.32;1671366;84;21024;-73
2022/12/28 01:10:19;;;;;;;7.28;3.65;;;;;;;2.95;91.67;99989.58;1667413;86;21761;-73
2022/12/28 01:12:45;;;;;;;9.38;3.52;;;;;;;2.97;91.75;100000.84;1667646;86;21568;-71
2022/12/28 01:15:13;;;;;;;8.50;3.90;;;;;;;2.99;91.84;99993.48;1710229;83;21013;-71
2022/12/28 01:17:40;;;;;;;10.25;4.12;;;;;;;2.96;91.91;100008.49;1716920;83;21109;-70
2022/12/28 01:20:09;;;;;;;8.40;3.58;;;;;;;2.95;92.21;99995.71;1717129;83;21603;-71
2022/12/28 01:22:36;;;;;;;5.33;4.15;;;;;;;2.94;92.48;99978.13;1671942;85;21045;-71
2022/12/28 01:25:03;;;;;;;7.47;4.47;;;;;;;2.98;92.87;99997.97;1672657;83;21010;-72
2022/12/28 01:27:31;;;;;;;9.13;4.15;;;;;;;2.98;92.87;99997.97;1676155;84;21125;-70
2022/12/28 01:29:58;;;;;;;7.80;4.87;;;;;;;2.99;93.11;99993.48;1672532;84;21224;-70
2022/12/28 01:32:24;;;;;;;8.30;4.55;;;;;;;2.99;93.32;99995.64;1698512;83;21585;-70
2022/12/28 01:34:50;;;;;;;9.60;4.72;;;;;;;2.97;93.61;99991.55;1697744;83;20995;-71
2022/12/28 01:37:18;;;;;;;5.20;3.05;;;;;;;2.95;93.80;99980.28;1697264;83;21029;-71
2022/12/28 01:39:46;;;;;;;9.50;4.25;;;;;;;2.96;94.12;99982.75;1689710;83;21093;-70
2022/12/28 01:42:17;;;;;;;7.60;4.53;;;;;;;2.96;94.35;99993.88;1723338;83;21363;-72
2022/12/28 01:44:48;;;;;;;6.25;4.20;;;;;;;2.98;94.54;99981.20;1701853;83;21065;-68
2022/12/28 01:47:27;;;;;;;15.05;4.70;;;;;;;3.00;94.64;99989.81;1672943;84;21088;-71
2022/12/28 01:50:02;;;;;;;10.18;4.90;;;;;;;3.01;94.68;100008.73;1699973;84;21029;-69
2022/12/28 01:52:40;;;;;;;7.90;3.85;;;;;;;2.99;94.75;99990.83;1718796;83;21070;-71
2022/12/28 01:55:18;;;;;;;7.60;4.58;;;;;;;2.98;94.91;100001.95;1688681;84;21088;-71
2022/12/28 01:57:50;;;;;;;10.93;4.62;;;;;;;2.98;95.07;99993.98;1672139;85;21738;-69
2022/12/28 02:00:17;;;;;;;10.97;5.00;;;;;;;2.99;95.24;99998.30;1671723;85;21044;-71
2022/12/28 02:02:53;;;;;;;8.98;4.60;;;;;;;2.98;95.31;99996.64;1710953;83;22247;-75
2022/12/28 02:05:24;;;;;;;5.92;4.67;;;;;;;2.98;95.41;99991.83;1686402;84;21074;-71
2022/12/28 02:08:21;;;;;;;8.28;4.62;;;;;;;2.98;95.51;100003.28;1700276;84;21125;-70
2022/12/28 02:10:47;;;;;;;10.23;5.08;;;;;;;2.97;95.50;100013.59;1702158;83;21661;-70
2022/12/28 02:13:15;;;;;;;6.53;4.47;;;;;;;2.96;95.71;99989.39;1699829;83;21101;-71
2022/12/28 02:15:43;;;;;;;10.82;6.12;;;;;;;2.98;95.80;99997.15;1681570;84;21845;-70
2022/12/28 02:18:10;;;;;;;6.12;4.83;;;;;;;2.96;95.91;100009.31;1671774;85;21050;-70
2022/12/28 02:20:42;;;;;;;5.85;4.70;;;;;;;2.96;95.91;100007.16;1689103;83;21142;-69
2022/12/28 02:23:37;;;;;;;8.98;5.05;;;;;;;2.93;96.03;100005.70;1699646;84;21574;-69
2022/12/28 02:26:33;;;;;;;8.95;4.10;;;;;;;2.95;96.07;99999.70;1685891;84;21121;-69
2022/12/28 02:29:35;;;;;;;10.58;5.22;;;;;;;2.95;96.07;99999.70;1686290;84;21013;-70
2022/12/28 02:32:37;;;;;;;6.30;4.62;;;;;;;2.95;96.32;100005.02;1705157;83;21481;-70
2022/12/28 02:35:40;;;;;;;11.97;5.70;;;;;;;2.95;96.32;100005.02;1690179;84;21075;-70
2022/12/28 02:38:31;;;;;;;9.15;4.67;;;;;;;2.94;96.38;100007.85;1683509;84;21109;-70
2022/12/28 02:41:02;;;;;;;11.28;4.53;;;;;;;2.93;96.68;100016.83;1696223;83;21320;-70
2022/12/28 02:43:29;;;;;;;6.08;4.55;;;;;;;2.93;96.68;100016.83;1672125;84;21077;-71
2022/12/28 02:52:02;;;;;;;8.10;6.08;;;;;;;2.91;96.80;100017.05;1697887;83;21001;-71
2022/12/28 02:58:01;;;;;;;8.53;4.87;;;;;;;2.90;97.06;100026.52;1655853;85;21061;-70
2022/12/28 03:00:54;;;;;;;10.50;5.58;;;;;;;2.89;97.21;100033.66;1615128;86;21030;-71
2022/12/28 03:03:33;;;;;;;9.43;5.97;;;;;;;2.92;97.28;100033.80;1636757;87;21172;-71
2022/12/28 03:09:28;;;;;;;5.87;4.83;;;;;;;2.93;97.29;100033.59;1633743;86;21519;-72
2022/12/28 03:12:08;;;;;;;9.38;6.75;;;;;;;2.92;97.35;100042.59;1630055;86;21043;-71
2022/12/28 03:14:43;;;;;;;11.15;6.05;;;;;;;2.92;97.43;100032.48;1630516;86;21021;-73
2022/12/28 03:31:17;;;;;;;10.48;5.05;;;;;;;2.95;97.45;100053.33;1664305;85;21684;-71
2022/12/28 03:33:49;;;;;;;15.32;6.37;;;;;;;2.97;97.52;100042.81;1643392;85;21066;-72
2022/12/28 03:36:29;;;;;;;8.98;5.97;;;;;;;2.99;97.42;100059.91;1636357;86;21021;-72
2022/12/28 03:39:22;;;;;;;6.92;5.62;;;;;;;3.01;97.36;100049.92;1653351;85;22201;-72
2022/12/28 03:45:21;;;;;;;6.10;4.62;;;;;;;2.99;97.28;100043.46;1612642;87;21185;-72
2022/12/28 03:47:49;;;;;;;6.62;5.08;;;;;;;2.98;97.35;100057.75;1641383;85;22247;-71
2022/12/28 03:50:16;;;;;;;8.30;4.87;;;;;;;3.00;97.43;100070.85;1662762;84;21060;-71
2022/12/28 03:52:43;;;;;;;9.70;5.28;;;;;;;3.04;97.25;100058.32;1655999;85;21671;-72
2022/12/28 03:55:12;;;;;;;8.50;6.72;;;;;;;3.04;97.25;100058.32;1629067;86;21084;-72
2022/12/28 03:57:39;;;;;;;7.85;6.45;;;;;;;3.06;97.07;100068.27;1636338;85;21066;-70
2022/12/28 04:00:09;;;;;;;9.35;4.55;;;;;;;3.06;97.07;100068.27;1669370;85;21142;-71
2022/12/28 04:02:39;;;;;;;8.90;4.35;;;;;;;3.05;97.05;100064.45;1632607;86;21145;-72
2022/12/28 04:05:07;;;;;;;11.03;5.25;;;;;;;3.07;97.04;100079.18;1648062;85;21053;-70
2022/12/28 04:07:34;;;;;;;7.50;5.45;;;;;;;3.08;96.99;100068.88;1629896;87;21034;-70
2022/12/28 04:10:02;;;;;;;9.40;5.28;;;;;;;3.12;96.91;100072.50;1628931;86;21574;-70
2022/12/28 04:12:30;;;;;;;8.33;5.78;;;;;;;3.12;96.71;100094.55;1668152;84;20975;-73
2022/12/28 04:14:58;;;;;;;9.23;4.85;;;;;;;3.12;96.71;100094.55;1667053;84;21002;-71
2022/12/28 04:17:24;;;;;;;5.78;5.28;;;;;;;3.09;96.72;100086.97;1661428;84;21033;-71
2022/12/28 04:19:51;;;;;;;9.15;4.85;;;;;;;3.09;96.72;100086.97;1693336;83;21106;-69
2022/12/28 04:22:18;;;;;;;9.10;5.87;;;;;;;3.07;96.77;100083.17;1684057;84;21140;-70
2022/12/28 04:24:45;;;;;;;11.90;5.35;;;;;;;3.10;96.82;100083.31;1681888;84;21069;-72
2022/12/28 04:27:12;;;;;;;4.92;4.45;;;;;;;3.10;96.82;100083.31;1689033;84;21070;-70
2022/12/28 04:29:40;;;;;;;8.10;6.30;;;;;;;3.10;96.68;100100.58;1673254;83;21057;-71
2022/12/28 04:32:08;;;;;;;8.60;5.05;;;;;;;3.10;96.58;100107.22;1673320;84;21061;-72
2022/12/28 04:34:35;;;;;;;10.13;5.55;;;;;;;3.09;96.52;100100.25;1673852;83;21122;-70
2022/12/28 04:37:07;;;;;;;9.45;4.83;;;;;;;3.10;96.57;100096.59;1696441;84;21050;-70
2022/12/28 04:39:34;;;;;;;7.78;5.40;;;;;;;3.10;96.39;100117.03;1691040;83;21124;-71
2022/12/28 04:42:00;;;;;;;12.13;5.55;;;;;;;3.10;96.39;100117.03;1651213;84;21078;-71
2022/12/28 04:44:27;;;;;;;8.38;4.78;;;;;;;3.13;96.05;100112.64;1664474;84;21119;-71
2022/12/28 04:46:54;;;;;;;9.78;5.37;;;;;;;3.13;96.05;100112.64;1698712;84;22592;-71
2022/12/28 04:49:20;;;;;;;8.45;5.25;;;;;;;3.11;96.03;100102.23;1724398;83;21593;-72
2022/12/28 04:51:47;;;;;;;9.48;5.40;;;;;;;3.13;95.98;100122.77;1729396;83;21614;-73
2022/12/28 04:54:13;;;;;;;7.62;4.90;;;;;;;3.13;95.93;100116.13;1729197;83;21047;-71
2022/12/28 04:56:40;;;;;;;6.92;5.03;;;;;;;3.14;95.88;100111.14;1704949;82;21102;-72
2022/12/28 04:59:07;;;;;;;8.48;4.85;;;;;;;3.16;95.85;100117.09;1706853;83;21244;-72
2022/12/28 05:01:35;;;;;;;6.45;5.08;;;;;;;3.17;95.77;100121.87;1671767;84;21038;-73
2022/12/28 05:04:02;;;;;;;5.75;4.83;;;;;;;3.17;95.64;100124.53;1671727;84;21026;-72
2022/12/28 05:06:28;;;;;;;8.30;4.58;;;;;;;3.16;95.66;100128.23;1704131;83;21014;-74
2022/12/28 05:08:57;;;;;;;6.92;5.47;;;;;;;3.15;95.79;100121.27;1713674;83;21143;-72
2022/12/28 05:11:26;;;;;;;5.20;4.35;;;;;;;3.12;96.09;100129.63;1700286;84;21061;-74
2022/12/28 05:13:53;;;;;;;7.00;4.95;;;;;;;3.12;96.09;100129.63;1677927;84;20967;-75
2022/12/28 05:16:22;;;;;;;9.90;5.87;;;;;;;3.15;96.18;100134.55;1685807;84;21046;-71
2022/12/28 05:18:49;;;;;;;5.58;4.80;;;;;;;3.18;96.24;100128.84;1694784;83;21086;-72
2022/12/28 05:21:19;;;;;;;8.65;5.50;;;;;;;3.17;96.21;100138.65;1660334;84;21086;-72
2022/12/28 05:23:47;;;;;;;10.38;6.42;;;;;;;3.15;96.22;100140.69;1662697;84;21070;-76
2022/12/28 05:26:16;;;;;;;9.28;5.05;;;;;;;3.14;96.15;100144.86;1681377;84;21055;-74
2022/12/28 05:28:43;;;;;;;8.95;5.08;;;;;;;3.12;96.28;100138.39;1691971;83;21063;-72
2022/12/28 05:31:12;;;;;;;8.00;5.05;;;;;;;3.09;96.47;100142.77;1663607;86;21021;-73
2022/12/28 05:33:39;;;;;;;5.58;4.72;;;;;;;3.13;96.57;100140.05;1664536;84;21057;-71
2022/12/28 05:36:12;;;;;;;7.80;5.12;;;;;;;3.15;96.44;100163.28;1666447;84;21193;-74
2022/12/28 05:38:39;;;;;;;6.22;5.25;;;;;;;3.15;96.44;100163.28;1698576;83;21366;-71
2022/12/28 05:41:18;;;;;;;8.25;5.67;;;;;;;3.12;96.42;100162.31;1706890;83;21092;-72
2022/12/28 05:43:45;;;;;;;10.72;6.58;;;;;;;3.12;96.54;100162.31;1687509;83;21567;-70
2022/12/28 05:46:18;;;;;;;10.40;6.33;;;;;;;3.12;96.68;100164.17;1663311;84;21670;-72
2022/12/28 05:48:45;;;;;;;11.00;5.10;;;;;;;3.14;96.84;100172.26;1683725;83;22160;-71
2022/12/28 05:51:16;;;;;;;6.95;6.15;;;;;;;3.13;96.76;100173.77;1663148;86;21054;-71
2022/12/28 05:53:43;;;;;;;8.15;6.20;;;;;;;3.12;96.82;100174.27;1666304;84;21065;-73
2022/12/28 05:56:19;;;;;;;9.05;5.92;;;;;;;3.09;96.88;100179.97;1663399;86;21006;-73
2022/12/28 05:58:53;;;;;;;7.42;4.97;;;;;;;3.06;96.96;100181.19;1679158;83;21329;-73
2022/12/28 06:01:20;;;;;;;;;;;;;;;3.04;97.16;100181.88;1707855;83;21096;-72
2022/12/28 06:03:49;;;;;;;9.83;5.42;;;;;;;3.03;97.39;100186.86;1684727;83;20156;-73
2022/12/28 06:06:17;;;;;;;9.18;5.40;;;;;;;3.03;97.41;100190.85;1663194;85;21654;-72
2022/12/28 06:08:45;;;;;;;9.05;5.97;;;;;;;3.02;97.33;100206.47;1679655;83;21078;-72
2022/12/28 06:11:14;;;;;;;7.83;5.03;;;;;;;3.01;97.26;100201.36;1672483;84;21074;-73
2022/12/28 06:13:41;;;;;;;8.65;5.42;;;;;;;2.98;97.35;100199.06;1690947;84;21116;-72
2022/12/28 06:16:12;;;;;;;8.65;4.85;;;;;;;2.96;97.27;100199.78;1686547;83;21110;-73
2022/12/28 06:18:39;;;;;;;11.43;6.40;;;;;;;2.92;97.40;100236.53;1686951;83;21042;-72
2022/12/28 06:21:12;;;;;;;7.28;5.12;;;;;;;2.92;97.40;100236.53;1671587;84;21002;-73
2022/12/28 06:23:40;;;;;;;8.68;5.58;;;;;;;2.92;97.13;100225.91;1689160;84;21053;-71
2022/12/28 06:26:07;;;;;;;8.40;5.37;;;;;;;2.93;97.00;100225.37;1687774;84;21125;-70
2022/12/28 06:28:36;;;;;;;11.75;5.97;;;;;;;2.91;96.85;100226.91;1694066;83;21110;-71
2022/12/28 06:31:12;;;;;;;6.95;5.47;;;;;;;2.90;96.77;100216.45;1674369;83;20955;-70
2022/12/28 06:33:39;;;;;;;9.05;4.50;;;;;;;2.87;96.78;100219.00;1688046;84;21535;-71
2022/12/28 06:36:18;;;;;;;7.55;4.62;;;;;;;2.88;96.69;100248.52;1674527;83;22452;-73
2022/12/28 08:47:06;;;;;;;8.00;4.63;;;;;;;2.96;91.29;100321.98;1772912;79;27376;-75
2022/12/28 08:49:33;;;;;;;9.38;4.92;;;;;;;2.99;91.05;100321.61;1789200;79;20983;-76
2022/12/28 08:51:59;;;;;;;4.47;3.65;;;;;;;3.08;90.75;100328.47;1795242;79;21510;-76
2022/12/28 08:54:26;;;;;;;10.48;5.40;;;;;;;3.16;90.09;100342.17;1790426;79;20952;-78
2022/12/28 08:56:53;;;;;;;7.08;4.47;;;;;;;3.20;89.22;100326.99;1797437;79;20951;-77
2022/12/28 08:59:19;;;;;;;6.40;4.30;;;;;;;3.25;88.84;100322.45;1797722;79;21026;-79
2022/12/28 09:01:47;;;;;;;10.13;6.00;;;;;;;3.26;87.59;100327.55;1796778;79;20908;-77
2022/12/28 09:04:19;;;;;;;5.95;5.08;;;;;;;3.28;87.42;100317.56;1793724;79;21563;-74
2022/12/28 09:06:46;;;;;;;3.67;3.27;;;;;;;3.29;86.26;100327.70;1789471;79;20979;-75
2022/12/28 09:09:14;;;;;;;8.03;5.28;;;;;;;3.31;86.13;100325.69;1791186;79;20899;-73
2022/12/28 09:11:41;;;;;;;5.30;3.47;;;;;;;3.33;85.61;100329.80;1794430;79;20975;-76
2022/12/28 09:14:10;;;;;;;10.18;3.67;;;;;;;3.37;84.53;100338.21;1794368;79;21542;-72
2022/12/28 09:16:37;;;;;;;7.45;4.72;;;;;;;3.39;83.66;100330.38;1783804;79;21210;-74
2022/12/28 09:19:06;;;;;;;8.98;3.75;;;;;;;3.42;83.54;100334.48;1791714;79;21076;-77
2022/12/28 09:21:35;;;;;;;7.12;4.22;;;;;;;3.43;83.40;100327.66;1788659;79;21044;-77
2022/12/28 09:24:01;;;;;;;12.55;4.45;;;;;;;3.48;82.15;100314.63;1776960;79;21512;-74
2022/12/28 09:26:34;;;;;;;7.15;4.05;;;;;;;3.48;82.15;100314.63;1801061;78;21027;-74
2022/12/28 09:29:03;;;;;;;5.67;3.37;;;;;;;3.51;81.02;100359.95;1759204;79;21282;-72
2022/12/28 09:31:31;;;;;;;7.25;4.05;;;;;;;3.58;80.82;100352.05;1785120;79;21067;-73
2022/12/28 09:34:03;;;;;;;7.87;4.08;;;;;;;3.58;81.21;100340.91;1779779;79;20982;-76
2022/12/28 09:36:34;;;;;;;4.53;4.12;;;;;;;3.64;81.25;100353.97;1786024;79;20972;-74
2022/12/28 09:39:05;;;;;;;6.15;3.83;;;;;;;3.66;81.25;100347.44;1758737;80;21030;-73
2022/12/28 09:42:07;;;;;;;7.35;4.35;;;;;;;3.68;80.46;100341.94;1783413;80;21116;-77
2022/12/28 09:45:06;;;;;;;4.62;3.87;;;;;;;3.73;80.48;100354.16;1759205;80;21043;-70
2022/12/28 09:47:38;;;;;;;8.25;4.40;;;;;;;3.78;80.52;100348.59;1758071;80;21050;-71
2022/12/28 09:50:18;;;;;;;5.92;4.37;;;;;;;3.79;78.89;100354.75;1712475;82;22341;-75
2022/12/28 09:53:32;;;;;;;5.78;3.77;;;;;;;3.79;78.54;100359.53;1728342;82;21110;-70
2022/12/28 09:56:36;;;;;;;8.53;3.87;;;;;;;3.79;78.17;100356.08;1727959;82;21175;-74
2022/12/28 09:59:04;;;;;;;7.90;4.33;;;;;;;3.79;78.69;100344.90;1720267;83;21093;-72
2022/12/28 10:01:34;;;;;;;6.53;3.47;;;;;;;3.83;79.08;100367.98;1739078;80;21007;-74
2022/12/28 10:04:01;;;;;;;8.00;4.65;;;;;;;3.87;78.34;100353.28;1741694;82;21552;-72
2022/12/28 10:06:31;;;;;;;6.50;3.52;;;;;;;3.92;78.00;100368.17;1720246;82;21637;-82
2022/12/28 10:08:59;;;;;;;4.53;3.52;;;;;;;3.92;76.83;100388.12;1732368;82;21036;-69
2022/12/28 10:11:30;;;;;;;9.08;4.67;;;;;;;3.92;75.54;100368.17;1723720;82;22400;-71
2022/12/28 10:14:02;;;;;;;6.10;3.50;;;;;;;3.87;74.35;100371.91;1734426;82;21611;-78
2022/12/28 10:16:35;;;;;;;5.90;3.53;;;;;;;3.84;74.17;100373.59;1714596;82;21087;-84
2022/12/28 10:19:01;;;;;;;6.55;4.22;;;;;;;3.80;74.17;100372.33;1723225;82;21083;-84
2022/12/28 10:21:30;;;;;;;6.15;3.50;;;;;;;3.78;73.43;100440.88;1724454;82;21086;-84
2022/12/28 10:23:57;;;;;;;7.97;4.00;;;;;;;3.77;73.19;100378.87;1725039;82;21006;-74
2022/12/28 10:26:24;;;;;;;8.03;3.58;;;;;;;3.77;72.73;100372.22;1747639;81;21030;-85
2022/12/28 10:28:57;;;;;;;7.05;4.10;;;;;;;3.79;72.95;100362.19;1731864;82;20951;-87
2022/12/28 10:31:35;;;;;;;9.40;4.55;;;;;;;3.82;72.81;100355.69;1713653;82;20991;-73
2022/12/28 10:34:14;;;;;;;5.42;3.55;;;;;;;3.87;73.12;100358.60;1706374;82;21121;-72
2022/12/28 10:36:40;;;;;;;6.45;3.55;;;;;;;3.90;72.82;100356.38;1716157;82;20963;-78
2022/12/28 10:39:24;;;;;;;5.65;3.85;;;;;;;3.95;72.90;100359.30;1727014;82;21058;-76
2022/12/28 10:41:50;;;;;;;5.30;2.95;;;;;;;4.01;72.56;100359.55;1697491;83;20988;-77
2022/12/28 10:44:32;;;;;;;5.47;3.05;;;;;;;4.02;69.97;100375.33;1748754;80;21107;-77
2022/12/28 10:47:01;;;;;;;8.73;4.92;;;;;;;4.00;69.37;100354.72;1723437;81;21527;-77
2022/12/28 10:49:35;;;;;;;5.05;2.72;;;;;;;3.97;69.74;100367.09;1705173;84;21059;-76
2022/12/28 10:52:18;;;;;;;7.08;3.05;;;;;;;3.99;69.92;100365.05;1707662;82;21512;-76
2022/12/28 10:54:44;;;;;;;5.90;2.77;;;;;;;4.01;69.95;100384.33;1713428;82;21118;-77
2022/12/28 10:57:29;;;;;;;5.90;3.05;;;;;;;4.00;69.19;100395.98;1732300;82;21055;-77
2022/12/28 11:00:21;;;;;;;5.90;3.08;;;;;;;3.99;69.35;100385.01;1741561;82;21195;-75
2022/12/28 11:02:48;;;;;;;5.50;2.62;;;;;;;3.96;69.21;100366.77;1697906;82;21546;-76
2022/12/28 11:05:23;;;;;;;6.33;2.98;;;;;;;3.94;68.86;100408.20;1734182;82;21500;-78
2022/12/28 11:08:04;;;;;;;6.33;2.80;;;;;;;3.97;68.72;100382.23;1715223;82;21032;-79
2022/12/28 11:10:31;;;;;;;10.00;3.72;;;;;;;3.95;68.55;100381.91;1697663;82;21050;-73
2022/12/28 11:13:00;;;;;;;3.62;2.80;;;;;;;3.94;68.62;100385.58;1743608;82;21108;-71
2022/12/28 11:15:30;;;;;;;6.05;2.75;;;;;;;3.94;68.84;100366.95;1738924;81;21045;-74
2022/12/28 11:18:17;;;;;;;7.40;4.15;;;;;;;3.95;68.68;100376.59;1715404;82;20963;-77
2022/12/28 11:20:47;;;;;;;9.55;4.55;;;;;;;3.95;68.30;100374.43;1706599;82;21551;-80
2022/12/28 11:23:18;;;;;;;4.12;3.10;;;;;;;3.95;68.33;100381.09;1700740;83;21103;-77
2022/12/28 11:25:45;;;;;;;6.40;3.02;;;;;;;3.94;68.22;100368.28;1700797;84;21219;-79
2022/12/28 11:28:20;;;;;;;11.33;3.80;;;;;;;3.97;68.18;100375.58;1710437;82;21038;-75
2022/12/28 11:30:47;;;;;;;5.95;3.02;;;;;;;3.97;67.74;100383.56;1729955;82;21075;-82
2022/12/28 11:33:43;;;;;;;10.95;3.22;;;;;;;3.99;67.89;100386.34;1734670;82;21043;-83
2022/12/28 11:36:26;;;;;;;9.85;3.22;;;;;;;4.01;67.80;100388.31;1775968;80;20985;-90
2022/12/28 11:38:55;;;;;;;8.40;3.20;;;;;;;4.02;66.78;100391.80;1736019;81;21141;-94
2022/12/28 11:41:42;;;;;;;6.22;3.02;;;;;;;4.06;67.17;100369.11;1703177;82;21006;-92
2022/12/28 11:44:23;;;;;;;4.85;3.20;;;;;;;4.07;66.71;100382.75;1715127;83;21035;-90
2022/12/28 11:47:16;;;;;;;4.83;2.90;;;;;;;4.07;66.51;100400.88;1694796;83;20997;-91
2022/12/28 11:49:44;;;;;;;12.63;3.30;;;;;;;4.07;66.66;100416.84;1706867;82;21146;-80
2022/12/28 11:52:26;;;;;;;7.47;3.62;;;;;;;4.14;66.97;100411.56;1698441;83;21068;-81
2022/12/28 11:54:59;;;;;;;5.70;3.65;;;;;;;4.20;66.79;100408.98;1717110;83;21041;-81
2022/12/28 11:57:37;;;;;;;9.80;4.05;;;;;;;4.28;67.08;100421.32;1718322;83;20973;-82
2022/12/28 12:00:22;;;;;;;8.85;3.75;;;;;;;4.37;66.32;100408.19;1689986;83;20984;-82
2022/12/28 12:02:55;;;;;;;5.00;3.08;;;;;;;4.46;66.43;100418.22;1711042;83;20979;-80
2022/12/28 12:05:43;;;;;;;4.87;2.87;;;;;;;4.55;66.21;100431.71;1718599;82;21046;-76
2022/12/28 12:08:18;;;;;;;6.62;3.20;;;;;;;4.58;65.76;100429.48;1740732;81;21298;-85
2022/12/28 12:10:48;;;;;;;4.37;2.90;;;;;;;4.55;65.18;100463.68;1727464;82;21031;-86
2022/12/28 12:13:35;;;;;;;6.47;2.98;;;;;;;4.42;64.18;100432.91;1706140;83;21059;-88
2022/12/28 12:16:06;;;;;;;7.58;2.70;;;;;;;4.24;64.82;100447.52;1710269;83;21043;-84
2022/12/28 12:18:46;;;;;;;5.53;3.37;;;;;;;4.07;65.21;100463.93;1726932;83;21127;-84
2022/12/28 12:21:36;;;;;;;7.15;3.90;;;;;;;3.93;65.59;100439.81;1729071;82;21507;-87
2022/12/28 12:24:36;;;;;;;8.68;3.12;;;;;;;3.83;66.10;100451.80;1739536;82;20920;-85
2022/12/28 12:27:13;;;;;;;4.55;3.15;;;;;;;3.75;66.36;100447.89;1740625;82;21032;-85
2022/12/28 12:29:44;;;;;;;4.97;3.92;;;;;;;3.68;66.62;100451.00;1730948;82;21063;-85
2022/12/28 12:32:24;;;;;;;8.10;3.40;;;;;;;3.61;67.16;100460.22;1742623;82;21163;-84
2022/12/28 12:34:55;;;;;;;4.87;3.27;;;;;;;3.59;67.54;100448.13;1728687;83;21038;-84
2022/12/28 12:38:05;;;;;;;6.35;4.03;;;;;;;3.55;67.89;100466.27;1741607;82;21525;-87
2022/12/28 12:40:59;;;;;;;9.50;3.47;;;;;;;3.56;68.24;100459.11;1728086;82;20917;-91
2022/12/28 12:44:08;;;;;;;8.85;3.58;;;;;;;3.55;68.43;100461.48;1670868;83;21710;-85
2022/12/28 12:47:21;;;;;;;3.62;3.20;;;;;;;3.54;68.59;100475.28;1735943;81;21067;-85
2022/12/28 12:50:34;;;;;;;6.65;2.83;;;;;;;3.54;68.73;100458.49;1727230;81;21067;-83
2022/12/28 12:53:12;;;;;;;4.67;3.70;;;;;;;3.51;68.92;100465.82;1734964;82;21065;-84
2022/12/28 12:56:07;;;;;;;8.25;3.40;;;;;;;3.51;69.21;100472.47;1754193;80;21027;-82
2022/12/28 12:59:20;;;;;;;6.67;3.45;;;;;;;3.49;69.23;100477.67;1735244;82;20967;-84
2022/12/28 13:02:28;;;;;;;7.87;3.27;;;;;;;3.50;69.35;100477.46;1747509;82;21242;-90
2022/12/28 13:05:05;;;;;;;5.28;3.27;;;;;;;3.54;69.51;100483.26;1629639;87;21090;-86
2022/12/28 13:07:39;;;;;;;5.70;3.10;;;;;;;3.58;69.53;100490.36;1652613;86;21068;-88
2022/12/28 13:10:15;;;;;;;8.23;3.77;;;;;;;3.60;69.56;100483.83;1682747;81;25855;-86
2022/12/28 13:12:42;;;;;;;7.72;4.45;;;;;;;3.63;69.67;100490.63;1749000;81;21122;-89
2022/12/28 13:15:16;;;;;;;6.60;3.27;;;;;;;3.64;69.37;100489.13;1750284;82;21155;-82
2022/12/28 13:18:09;;;;;;;7.45;3.92;;;;;;;3.63;69.55;100498.10;1751297;81;20951;-92
2022/12/28 13:20:37;;;;;;;6.33;3.67;;;;;;;3.63;69.52;100491.95;1760476;80;20988;-85
2022/12/28 13:23:04;;;;;;;7.25;4.22;;;;;;;3.62;69.73;100495.12;1744616;82;21056;-87
2022/12/28 13:25:33;;;;;;;9.40;3.58;;;;;;;3.63;69.89;100495.95;1762573;80;20961;-87
2022/12/28 13:28:02;;;;;;;6.85;3.25;;;;;;;3.63;69.89;100505.25;1776804;80;21001;-89
2022/12/28 13:30:29;;;;;;;5.53;4.03;;;;;;;3.63;69.92;100498.10;1763349;80;21567;-88
2022/12/28 13:32:59;;;;;;;4.90;3.87;;;;;;;3.63;70.01;100502.09;1749229;82;21055;-89
2022/12/28 13:35:29;;;;;;;4.40;3.83;;;;;;;3.64;70.02;100505.58;1748739;80;21063;-87
2022/12/28 13:38:09;;;;;;;7.37;3.70;;;;;;;3.65;70.03;100502.72;1700105;82;21290;-86
2022/12/28 13:40:37;;;;;;;4.10;3.47;;;;;;;3.64;69.98;100498.43;1735003;81;22294;-88
2022/12/28 13:43:18;;;;;;;6.30;3.50;;;;;;;3.64;70.12;100510.91;1738733;82;21106;-86
2022/12/28 13:45:44;;;;;;;7.20;3.00;;;;;;;3.64;70.17;100513.56;1732158;82;20944;-87
2022/12/28 13:48:11;;;;;;;10.30;3.85;;;;;;;3.61;70.32;100508.09;1736590;80;21048;-84
2022/12/28 13:50:38;;;;;;;10.00;4.22;;;;;;;3.61;70.37;100501.94;1712403;82;21026;-83
2022/12/28 13:53:11;;;;;;;6.85;3.37;;;;;;;3.59;70.49;100510.12;1730447;82;21311;-77
2022/12/28 13:55:54;;;;;;;6.00;3.40;;;;;;;3.59;70.61;100515.45;1744304;82;21043;-86
2022/12/28 13:58:34;;;;;;;7.00;4.58;;;;;;;3.58;70.76;100511.63;1715990;82;21060;-86
2022/12/28 14:01:06;;;;;;;15.05;4.45;;;;;;;3.58;70.87;100508.47;1736399;81;20989;-86
2022/12/28 14:03:32;;;;;;;6.70;3.90;;;;;;;3.57;71.00;100504.16;1748078;80;21067;-83
2022/12/28 14:06:00;;;;;;;6.67;3.42;;;;;;;3.58;71.16;100514.30;1708549;83;21569;-88
2022/12/28 14:08:27;;;;;;;7.87;3.70;;;;;;;3.57;71.26;100504.66;1748927;82;20964;-87
2022/12/28 14:10:56;;;;;;;5.67;4.20;;;;;;;3.57;71.43;100500.16;1740120;81;21066;-86
2022/12/28 14:13:23;;;;;;;7.78;4.65;;;;;;;3.58;71.56;100506.31;1743555;81;21038;-86
2022/12/28 14:15:49;;;;;;;8.88;4.60;;;;;;;3.56;71.67;100501.17;1750004;82;21183;-84
2022/12/28 14:18:16;;;;;;;6.55;4.50;;;;;;;3.57;71.81;100504.16;1750279;81;21201;-91
2022/12/28 14:20:50;;;;;;;9.40;5.97;;;;;;;3.58;71.97;100500.99;1750484;82;21547;-84
2022/12/28 14:23:21;;;;;;;8.30;5.40;;;;;;;3.60;72.03;100507.77;1740517;80;20992;-87
2022/12/28 14:25:48;;;;;;;13.93;6.50;;;;;;;3.60;72.17;100512.28;1717942;82;20976;-87
2022/12/28 14:28:29;;;;;;;13.88;5.33;;;;;;;3.59;72.35;100507.47;1705140;82;21538;-87
2022/12/28 14:30:55;;;;;;;12.82;5.42;;;;;;;3.62;72.52;100507.09;1721829;82;21441;-89
2022/12/28 14:33:25;;;;;;;7.53;5.00;;;;;;;3.64;72.56;100512.23;1716305;82;21071;-85
2022/12/28 14:35:56;;;;;;;7.70;5.47;;;;;;;3.63;72.65;100514.56;1734238;81;21000;-88
2022/12/28 14:38:26;;;;;;;7.92;5.97;;;;;;;3.62;72.75;100515.56;1748247;80;20992;-83
2022/12/28 14:40:58;;;;;;;8.53;6.65;;;;;;;3.59;72.91;100507.47;1752418;80;20947;-81